createdAt,value
2019-04-14T00:01:02.172Z,93.30
2019-04-14T00:03:32.545Z,93.00
2019-04-14T00:06:07.431Z,93.90
2019-04-14T00:08:37.206Z,93.70
2019-04-14T00:11:06.267Z,94.00
2019-04-14T00:13:35.007Z,94.40
2019-04-14T00:16:03.751Z,94.50
2019-04-14T00:18:33.649Z,94.10
2019-04-14T00:21:02.580Z,93.80
2019-04-14T00:23:31.240Z,93.60
2019-04-14T00:26:27.157Z,93.30
2019-04-14T00:28:57.942Z,92.50
2019-04-14T00:31:28.388Z,92.10
2019-04-14T00:33:59.193Z,92.00
2019-04-14T00:36:30.423Z,91.80
2019-04-14T00:38:59.302Z,91.80
2019-04-14T00:41:43.623Z,92.50
2019-04-14T00:44:12.239Z,92.10
2019-04-14T00:46:49.600Z,91.60
2019-04-14T00:49:18.349Z,92.70
2019-04-14T00:51:48.414Z,93.40
2019-04-14T00:54:23.968Z,94.30
2019-04-14T00:56:54.080Z,95.00
2019-04-14T00:59:23.080Z,95.20
2019-04-14T01:01:52.722Z,94.90
2019-04-14T01:04:21.525Z,94.20
2019-04-14T01:06:51.159Z,93.40
2019-04-14T01:09:20.111Z,92.70
2019-04-14T01:11:48.856Z,92.40
2019-04-14T01:14:18.968Z,92.30
2019-04-14T01:16:53.960Z,92.50
2019-04-14T01:19:22.814Z,92.20
2019-04-14T01:21:52.480Z,92.10
2019-04-14T01:24:21.367Z,92.20
2019-04-14T01:26:50.688Z,92.20
2019-04-14T01:29:20.682Z,91.70
2019-04-14T01:31:49.846Z,91.70
2019-04-14T01:34:19.425Z,92.10
2019-04-14T01:36:49.574Z,92.50
2019-04-14T01:39:19.657Z,92.60
2019-04-14T01:41:54.457Z,92.20
2019-04-14T01:44:24.135Z,92.10
2019-04-14T01:47:01.526Z,92.40
2019-04-14T01:49:31.095Z,92.80
2019-04-14T01:52:10.320Z,92.80
2019-04-14T01:54:43.416Z,92.50
2019-04-14T01:57:13.709Z,92.70
2019-04-14T01:59:42.429Z,93.60
2019-04-14T02:02:16.256Z,93.70
2019-04-14T02:04:55.266Z,94.30
2019-04-14T02:07:27.673Z,94.50
2019-04-14T02:09:57.477Z,94.20
2019-04-14T02:12:26.304Z,93.50
2019-04-14T02:14:56.255Z,93.10
2019-04-14T02:17:26.269Z,92.80
2019-04-14T02:19:55.016Z,92.90
2019-04-14T02:22:24.540Z,92.70
2019-04-14T02:24:53.290Z,92.90
2019-04-14T02:27:23.065Z,92.80
2019-04-14T02:29:51.917Z,92.60
2019-04-14T02:32:51.494Z,92.80
2019-04-14T02:35:21.048Z,93.10
2019-04-14T02:40:21.508Z,92.50
2019-04-14T02:42:46.484Z,92.40
2019-04-14T02:45:32.760Z,92.40
2019-04-14T02:50:26.387Z,92.80
2019-04-14T02:55:32.415Z,93.80
2019-04-14T03:03:16.493Z,92.70
2019-04-14T03:05:45.065Z,92.60
2019-04-14T03:08:13.130Z,92.50
2019-04-14T03:13:21.006Z,92.80
2019-04-14T03:15:47.840Z,92.50
2019-04-14T03:18:32.010Z,92.50
2019-04-14T03:23:48.702Z,92.60
2019-04-14T03:26:15.411Z,92.40
2019-04-14T03:28:51.746Z,92.20
2019-04-14T03:34:24.250Z,92.30
2019-04-14T03:39:00.812Z,92.60
2019-04-14T03:41:31.638Z,92.80
2019-04-14T03:43:54.801Z,93.10
2019-04-14T03:49:31.655Z,93.00
2019-04-14T03:51:40.063Z,92.70
2019-04-14T03:53:59.108Z,92.80
2019-04-14T03:56:13.792Z,92.80
2019-04-14T03:58:40.760Z,92.50
2019-04-14T04:01:10.476Z,92.30
2019-04-14T04:03:43.492Z,92.30
2019-04-14T04:06:13.670Z,92.60
2019-04-14T04:08:42.792Z,92.70
2019-04-14T04:11:12.557Z,92.90
2019-04-14T04:13:43.294Z,92.70
2019-04-14T04:16:13.897Z,92.90
2019-04-14T04:18:52.685Z,94.30
2019-04-14T04:21:14.780Z,95.70
2019-04-14T04:23:51.196Z,97.20
2019-04-14T04:26:30.319Z,98.50
2019-04-14T04:29:07.036Z,98.90
2019-04-14T04:31:46.530Z,99.00
2019-04-14T04:34:16.929Z,98.80
2019-04-14T04:37:03.858Z,98.40
2019-04-14T04:39:36.426Z,97.50
2019-04-14T04:42:07.057Z,96.50
2019-04-14T04:44:35.694Z,96.00
2019-04-14T04:47:07.647Z,95.60
2019-04-14T04:49:36.452Z,95.30
2019-04-14T04:52:06.207Z,95.20
2019-04-14T04:54:36.316Z,95.30
2019-04-14T04:57:05.336Z,94.80
2019-04-14T04:59:34.324Z,94.00
2019-04-14T05:02:03.150Z,94.50
2019-04-14T05:04:37.809Z,94.70
2019-04-14T05:07:07.803Z,95.70
2019-04-14T05:09:39.018Z,95.90
2019-04-14T05:12:13.228Z,96.30
2019-04-14T05:14:50.147Z,96.30
2019-04-14T05:17:23.769Z,95.20
2019-04-14T05:19:52.399Z,94.90
2019-04-14T05:22:22.248Z,94.80
2019-04-14T05:24:51.175Z,95.30
2019-04-14T05:27:21.022Z,96.00
2019-04-14T05:30:00.321Z,95.90
2019-04-14T05:32:29.095Z,95.30
2019-04-14T05:34:58.695Z,95.60
2019-04-14T05:37:27.663Z,95.80
2019-04-14T05:40:05.789Z,95.50
2019-04-14T05:42:40.796Z,94.80
2019-04-14T05:45:11.086Z,94.70
2019-04-14T05:47:41.380Z,95.80
2019-04-14T05:50:11.550Z,96.40
2019-04-14T05:52:40.531Z,96.70
2019-04-14T05:55:26.194Z,96.10
2019-04-14T05:57:57.764Z,96.30
2019-04-14T06:00:34.125Z,96.40
2019-04-14T06:03:17.546Z,96.50
2019-04-14T06:05:46.289Z,95.80
2019-04-14T06:08:20.636Z,96.50
2019-04-14T06:10:54.287Z,96.30
2019-04-14T06:13:22.972Z,95.40
2019-04-14T06:16:05.767Z,94.40
2019-04-14T06:18:40.193Z,93.00
2019-04-14T06:21:15.037Z,90.70
2019-04-14T06:23:57.238Z,86.90
2019-04-14T06:26:28.452Z,85.40
2019-04-14T06:29:18.349Z,84.80
2019-04-14T06:32:04.955Z,81.60
2019-04-14T06:34:44.321Z,77.10
2019-04-14T06:37:14.762Z,75.40
2019-04-14T06:39:48.307Z,78.10
2019-04-14T06:42:27.124Z,81.90
2019-04-14T06:44:55.912Z,80.80
2019-04-14T06:47:45.947Z,81.20
2019-04-14T06:50:20.909Z,83.20
2019-04-14T06:52:49.634Z,87.60
2019-04-14T06:55:30.578Z,90.70
2019-04-14T06:57:59.310Z,91.40
2019-04-14T07:00:31.278Z,90.60
2019-04-14T07:03:05.042Z,86.10
2019-04-14T07:05:39.460Z,85.20
2019-04-14T07:08:31.351Z,82.00
2019-04-14T07:11:32.898Z,80.60
2019-04-14T07:14:08.465Z,78.50
2019-04-14T07:16:40.321Z,87.50
2019-04-14T07:19:32.500Z,90.30
2019-04-14T07:22:22.651Z,89.90
2019-04-14T07:24:52.894Z,89.10
2019-04-14T07:27:27.798Z,81.10
2019-04-14T07:30:33.758Z,77.30
2019-04-14T07:33:09.900Z,74.00
2019-04-14T07:35:40.271Z,74.00
2019-04-14T07:38:10.537Z,79.60
2019-04-14T07:40:49.365Z,83.60
2019-04-14T07:43:25.321Z,86.00
2019-04-14T07:46:07.108Z,87.20
2019-04-14T07:48:52.376Z,86.30
2019-04-14T07:51:24.027Z,85.10
2019-04-14T07:53:54.291Z,83.90
2019-04-14T07:56:48.999Z,82.70
2019-04-14T08:00:04.853Z,82.50
2019-04-14T08:02:43.840Z,85.20
2019-04-14T08:05:23.371Z,86.30
2019-04-14T08:07:57.927Z,87.30
2019-04-14T08:10:27.573Z,90.00
2019-04-14T08:12:56.166Z,90.60
2019-04-14T08:15:24.874Z,90.50
2019-04-14T08:21:09.263Z,90.00
2019-04-14T08:23:43.892Z,87.90
2019-04-14T08:26:31.448Z,89.00
2019-04-14T08:29:09.208Z,86.80
2019-04-14T08:32:11.391Z,86.60
2019-04-14T08:38:45.469Z,80.20
2019-04-14T08:41:48.331Z,81.70
2019-04-14T08:44:27.710Z,83.20
2019-04-14T08:47:12.712Z,85.50
2019-04-14T08:49:43.077Z,86.50
2019-04-14T08:52:13.369Z,85.40
2019-04-14T08:54:46.827Z,84.00
2019-04-14T08:57:28.342Z,82.30
2019-04-14T09:03:42.798Z,81.20
2019-04-14T09:06:25.069Z,82.90
2019-04-14T09:09:13.209Z,83.60
2019-04-14T09:11:46.302Z,82.70
2019-04-14T09:14:27.236Z,79.60
2019-04-14T09:17:18.393Z,79.20
2019-04-14T09:20:22.705Z,81.10
2019-04-14T09:23:51.178Z,82.00
2019-04-14T09:26:40.799Z,82.00
2019-04-14T09:29:15.321Z,84.80
2019-04-14T09:31:50.967Z,81.60
2019-04-14T09:35:01.825Z,84.00
2019-04-14T09:37:36.749Z,81.50
2019-04-14T09:40:11.874Z,77.10
2019-04-14T09:42:46.500Z,78.80
2019-04-14T09:45:21.229Z,77.00
2019-04-14T09:47:55.766Z,75.20
2019-04-14T09:50:24.733Z,73.50
2019-04-14T09:52:56.441Z,72.60
2019-04-14T09:55:31.739Z,73.30
2019-04-14T09:58:00.387Z,73.00
2019-04-14T10:00:44.252Z,73.10
2019-04-14T10:03:18.924Z,74.50
2019-04-14T10:05:50.357Z,76.20
2019-04-14T10:08:27.505Z,78.40
2019-04-14T10:11:01.946Z,80.40
2019-04-14T10:13:30.602Z,77.10
2019-04-14T10:36:04.187Z,75.90
2019-04-14T10:41:56.433Z,72.40
2019-04-14T10:51:42.247Z,73.20
2019-04-14T10:54:16.386Z,72.80
2019-04-14T10:57:01.010Z,74.10
2019-04-14T10:59:34.127Z,74.10
2019-04-14T11:02:13.054Z,73.00
2019-04-14T11:04:47.626Z,72.30
2019-04-14T11:07:23.891Z,72.60
2019-04-14T11:09:54.071Z,72.40
2019-04-14T11:12:22.673Z,68.20
2019-04-14T11:14:52.446Z,66.20
2019-04-14T11:17:21.242Z,65.30
2019-04-14T11:19:56.313Z,64.60
2019-04-14T11:22:46.086Z,65.00
2019-04-14T11:25:22.246Z,63.60
2019-04-14T11:28:46.368Z,65.90
2019-04-14T11:31:52.055Z,66.50
2019-04-14T11:34:34.866Z,67.70
2019-04-14T11:37:19.940Z,66.20
2019-04-14T11:40:11.841Z,66.30
2019-04-14T11:42:51.860Z,64.70
2019-04-14T11:45:13.911Z,63.70
2019-04-14T11:48:06.222Z,65.70
2019-04-14T11:50:37.149Z,66.90
2019-04-14T11:53:49.040Z,62.60
2019-04-14T11:56:23.739Z,59.70
2019-04-14T11:59:02.153Z,59.60
2019-04-14T12:01:40.849Z,60.90
2019-04-14T12:04:28.636Z,58.60
2019-04-14T12:07:46.687Z,62.30
2019-04-14T12:10:15.450Z,62.30
2019-04-14T12:13:17.055Z,65.10
2019-04-14T12:15:51.898Z,61.80
2019-04-14T12:18:24.571Z,61.90
2019-04-14T12:20:56.706Z,61.00
2019-04-14T12:23:31.190Z,59.90
2019-04-14T12:26:05.539Z,62.40
2019-04-14T12:28:36.189Z,62.20
2019-04-14T12:31:08.720Z,59.90
2019-04-14T12:33:50.823Z,59.80
2019-04-14T12:36:22.578Z,59.60
2019-04-14T12:38:56.359Z,59.90
2019-04-14T12:41:33.227Z,60.30
2019-04-14T12:44:08.773Z,61.20
2019-04-14T12:46:41.677Z,60.90
2019-04-14T12:49:16.322Z,58.70
2019-04-14T12:51:55.556Z,58.10
2019-04-14T12:54:25.377Z,57.50
2019-04-14T12:56:56.674Z,55.90
2019-04-14T12:59:32.697Z,55.70
2019-04-14T13:02:21.860Z,56.10
2019-04-14T13:05:03.847Z,55.40
2019-04-14T13:07:36.896Z,52.50
2019-04-14T13:10:08.169Z,53.30
2019-04-14T13:12:38.869Z,55.50
2019-04-14T13:15:30.231Z,56.70
2019-04-14T13:18:00.875Z,57.30
2019-04-14T13:20:29.615Z,56.30
2019-04-14T13:23:04.423Z,55.60
2019-04-14T13:25:37.857Z,55.20
2019-04-14T13:28:18.410Z,54.70
2019-04-14T13:30:59.689Z,55.70
2019-04-14T13:33:29.589Z,52.80
2019-04-14T13:36:07.289Z,52.80
2019-04-14T13:38:41.175Z,53.30
2019-04-14T13:41:17.098Z,51.00
2019-04-14T13:43:46.418Z,50.90
2019-04-14T13:49:44.030Z,50.10
2019-04-14T13:52:15.386Z,48.60
2019-04-14T13:54:44.014Z,49.50
2019-04-14T13:57:13.860Z,49.20
2019-04-14T13:59:59.928Z,52.00
2019-04-14T14:02:34.847Z,52.30
2019-04-14T14:05:58.953Z,52.00
2019-04-14T14:08:27.737Z,51.10
2019-04-14T14:10:58.158Z,51.90
2019-04-14T14:13:46.556Z,52.00
2019-04-14T14:16:17.007Z,50.10
2019-04-14T14:18:47.967Z,49.70
2019-04-14T14:21:35.173Z,48.90
2019-04-14T14:24:21.773Z,47.70
2019-04-14T14:26:52.077Z,47.30
2019-04-14T14:29:20.908Z,45.60
2019-04-14T14:31:49.765Z,46.90
2019-04-14T14:34:19.091Z,47.00
2019-04-14T14:36:49.071Z,48.00
2019-04-14T14:39:19.770Z,48.00
2019-04-14T14:41:49.111Z,48.10
2019-04-14T14:44:22.872Z,46.30
2019-04-14T14:46:53.825Z,45.30
2019-04-14T14:49:25.543Z,45.20
2019-04-14T14:52:10.292Z,44.40
2019-04-14T14:54:39.434Z,45.40
2019-04-14T14:57:08.384Z,45.60
2019-04-14T14:59:36.997Z,45.40
2019-04-14T15:02:08.555Z,45.70
2019-04-14T15:04:42.967Z,46.90
2019-04-14T15:07:14.870Z,46.20
2019-04-14T15:09:44.126Z,46.50
2019-04-14T15:12:13.386Z,46.70
2019-04-14T15:14:50.667Z,46.40
2019-04-14T15:17:19.752Z,47.10
2019-04-14T15:19:48.435Z,46.60
2019-04-14T15:22:18.189Z,45.30
2019-04-14T15:24:47.245Z,45.80
2019-04-14T15:27:16.191Z,44.20
2019-04-14T15:29:44.822Z,44.20
2019-04-14T15:32:13.550Z,44.60
2019-04-14T15:34:48.153Z,44.60
2019-04-14T15:37:16.752Z,46.20
2019-04-14T15:39:45.388Z,45.40
2019-04-14T15:42:14.394Z,45.20
2019-04-14T15:44:43.757Z,45.70
2019-04-14T15:47:12.803Z,45.50
2019-04-14T15:49:41.474Z,45.60
2019-04-14T15:52:10.386Z,46.30
2019-04-14T15:54:41.906Z,45.10
2019-04-14T15:57:13.350Z,45.70
2019-04-14T16:00:04.749Z,44.20
2019-04-14T16:02:38.095Z,43.20
2019-04-14T16:05:12.653Z,43.10
2019-04-14T16:07:49.315Z,44.50
2019-04-14T16:10:25.490Z,44.50
2019-04-14T16:13:13.934Z,42.30
2019-04-14T16:15:44.153Z,42.30
2019-04-14T16:18:45.036Z,42.10
2019-04-14T16:21:19.832Z,42.90
2019-04-14T16:23:54.689Z,42.70
2019-04-14T16:26:46.649Z,43.30
2019-04-14T16:29:32.077Z,41.50
2019-04-14T16:32:16.288Z,42.90
2019-04-14T16:35:00.019Z,43.80
2019-04-14T16:37:55.150Z,42.20
2019-04-14T16:40:44.615Z,42.80
2019-04-14T16:43:15.426Z,43.90
2019-04-14T16:45:51.393Z,42.80
2019-04-14T16:48:29.370Z,42.60
2019-04-14T16:51:00.597Z,43.20
2019-04-14T16:53:34.176Z,42.50
2019-04-14T16:56:13.488Z,43.20
2019-04-14T16:58:46.471Z,42.80
2019-04-14T17:01:20.859Z,42.00
2019-04-14T17:03:49.623Z,43.70
2019-04-14T17:06:20.934Z,42.80
2019-04-14T17:08:51.184Z,43.90
2019-04-14T17:11:19.941Z,43.30
2019-04-14T17:14:11.049Z,43.20
2019-04-14T17:16:47.437Z,43.10
2019-04-14T17:19:47.760Z,44.20
2019-04-14T17:22:28.913Z,44.30
2019-04-14T17:25:03.681Z,45.10
2019-04-14T17:28:10.252Z,45.60
2019-04-14T17:30:40.526Z,45.40
2019-04-14T17:33:22.905Z,47.00
2019-04-14T17:36:02.163Z,47.60
2019-04-14T17:38:35.059Z,47.80
2019-04-14T17:41:10.463Z,47.40
2019-04-14T17:44:04.915Z,47.80
2019-04-14T17:46:53.122Z,47.20
2019-04-14T17:49:32.408Z,48.40
2019-04-14T17:52:19.260Z,49.40
2019-04-14T17:55:03.590Z,50.10
2019-04-14T17:57:52.397Z,49.10
2019-04-14T18:00:26.607Z,49.20
2019-04-14T18:03:02.856Z,50.00
2019-04-14T18:05:42.669Z,50.30
2019-04-14T18:08:21.536Z,51.00
2019-04-14T18:11:08.477Z,51.60
2019-04-14T18:14:19.426Z,52.20
2019-04-14T18:17:09.001Z,53.00
2019-04-14T18:19:45.193Z,54.30
2019-04-14T18:22:14.511Z,54.70
2019-04-14T18:28:16.357Z,55.50
2019-04-14T18:30:59.368Z,55.70
2019-04-14T18:33:32.443Z,57.50
2019-04-14T18:36:50.340Z,57.40
2019-04-14T18:39:50.942Z,58.20
2019-04-14T18:42:34.735Z,58.50
2019-04-14T18:45:18.778Z,59.50
2019-04-14T18:47:50.937Z,60.00
2019-04-14T18:50:30.476Z,59.90
2019-04-14T18:53:20.375Z,60.20
2019-04-14T18:55:53.574Z,59.90
2019-04-14T18:58:41.046Z,58.80
2019-04-14T19:01:17.469Z,58.80
2019-04-14T19:03:49.208Z,59.00
2019-04-14T19:06:18.526Z,59.50
2019-04-14T19:08:52.619Z,60.20
2019-04-14T19:11:46.744Z,60.80
2019-04-14T19:14:17.763Z,61.10
2019-04-14T19:16:52.122Z,61.60
2019-04-14T19:19:24.230Z,61.60
2019-04-14T19:21:55.984Z,61.70
2019-04-14T19:24:23.946Z,61.60
2019-04-14T19:26:56.515Z,61.10
2019-04-14T19:29:38.719Z,61.40
2019-04-14T19:32:08.361Z,61.20
2019-04-14T19:34:37.486Z,60.50
2019-04-14T19:37:21.469Z,61.00
2019-04-14T19:39:50.064Z,60.90
2019-04-14T19:42:26.080Z,60.60
2019-04-14T19:45:01.583Z,60.80
2019-04-14T19:47:30.181Z,60.40
2019-04-14T19:49:58.833Z,59.60
2019-04-14T19:52:33.315Z,60.00
2019-04-14T19:55:02.418Z,59.80
2019-04-14T19:57:31.209Z,60.10
2019-04-14T19:59:59.801Z,60.20
2019-04-14T20:02:28.497Z,60.50
2019-04-14T20:04:57.434Z,60.80
2019-04-14T20:07:31.753Z,59.90
2019-04-14T20:10:00.554Z,59.80
2019-04-14T20:12:29.214Z,59.80
2019-04-14T20:14:57.889Z,59.70
2019-04-14T20:17:32.534Z,59.40
2019-04-14T20:20:05.479Z,59.90
2019-04-14T20:22:36.188Z,60.30
2019-04-14T20:25:08.864Z,60.20
2019-04-14T20:27:51.185Z,60.60
2019-04-14T20:30:33.622Z,61.00
2019-04-14T20:33:02.288Z,60.60
2019-04-14T20:35:30.947Z,61.20
2019-04-14T20:37:59.618Z,60.90
2019-04-14T20:40:32.258Z,61.10
2019-04-14T20:43:04.854Z,61.80
2019-04-14T20:45:33.562Z,61.90
2019-04-14T20:48:02.349Z,61.20
2019-04-14T20:50:30.966Z,62.40
2019-04-14T20:52:59.608Z,61.70
2019-04-14T20:55:28.325Z,61.70
2019-04-14T20:57:56.913Z,62.20
2019-04-14T21:00:25.910Z,62.00
2019-04-14T21:03:04.929Z,62.50
2019-04-14T21:05:38.196Z,63.00
2019-04-14T21:08:14.322Z,63.30
2019-04-14T21:10:56.208Z,63.40
2019-04-14T21:13:25.766Z,63.20
2019-04-14T21:15:56.016Z,65.00
2019-04-14T21:18:28.887Z,64.50
2019-04-14T21:20:59.218Z,65.40
2019-04-14T21:23:35.355Z,65.70
2019-04-14T21:26:12.597Z,66.20
2019-04-14T21:29:01.289Z,66.90
2019-04-14T21:31:31.632Z,67.60
2019-04-14T21:34:08.144Z,67.70
2019-04-14T21:36:47.811Z,68.00
2019-04-14T21:39:40.618Z,68.20
2019-04-14T21:42:07.779Z,69.00
2019-04-14T21:44:36.437Z,69.90
2019-04-14T21:47:05.186Z,69.40
2019-04-14T21:49:33.801Z,70.00
2019-04-14T21:52:09.711Z,70.70
2019-04-14T21:54:40.745Z,70.60
2019-04-14T21:57:15.916Z,71.20
2019-04-14T22:00:06.777Z,71.80
2019-04-14T22:02:56.400Z,72.50
2019-04-14T22:05:40.210Z,73.10
2019-04-14T22:08:10.546Z,73.70
2019-04-14T22:10:40.788Z,74.00
2019-04-14T22:13:09.502Z,74.40
2019-04-14T22:15:52.822Z,74.60
2019-04-14T22:18:27.848Z,74.60
2019-04-14T22:20:56.465Z,74.60
2019-04-14T22:23:25.201Z,74.50
2019-04-14T22:25:53.861Z,75.00
2019-04-14T22:28:22.473Z,76.00
2019-04-14T22:30:51.134Z,76.90
2019-04-14T22:33:19.737Z,77.90
2019-04-14T22:35:54.332Z,77.60
2019-04-14T22:38:22.927Z,77.40
2019-04-14T22:40:51.545Z,77.50
2019-04-14T22:43:23.365Z,78.00
2019-04-14T22:45:51.219Z,78.60
2019-04-14T22:48:19.924Z,78.70
2019-04-14T22:50:48.526Z,77.40
2019-04-14T22:53:17.143Z,77.00
2019-04-14T22:55:45.808Z,76.70
2019-04-14T22:58:17.517Z,77.30
2019-04-14T23:00:51.541Z,77.50
2019-04-14T23:03:24.734Z,78.80
2019-04-14T23:05:55.040Z,79.20
2019-04-14T23:08:30.899Z,79.80
2019-04-14T23:11:03.942Z,80.90
2019-04-14T23:13:39.288Z,81.40
2019-04-14T23:16:12.498Z,81.90
2019-04-14T23:19:00.986Z,81.90
2019-04-14T23:21:54.192Z,82.10
2019-04-14T23:24:24.474Z,82.00
2019-04-14T23:26:53.412Z,81.90
2019-04-14T23:29:22.181Z,81.70
2019-04-14T23:31:57.639Z,81.30
2019-04-14T23:34:26.335Z,82.20
2019-04-14T23:37:00.695Z,81.90
2019-04-14T23:39:29.364Z,81.90
2019-04-14T23:41:58.129Z,81.70
2019-04-14T23:44:26.762Z,81.40
2019-04-14T23:46:55.495Z,81.40
2019-04-14T23:49:24.161Z,82.10
2019-04-14T23:51:52.754Z,81.80
2019-04-14T23:54:22.298Z,82.30
2019-04-14T23:56:50.885Z,82.30
2019-04-14T23:59:19.555Z,82.20
